createdAt,value
2018-07-24T00:02:59.275Z,99.90
2018-07-24T00:05:35.124Z,99.90
2018-07-24T00:08:15.896Z,99.90
2018-07-24T00:10:50.506Z,99.90
2018-07-24T00:13:25.285Z,99.90
2018-07-24T00:15:57.968Z,99.90
2018-07-24T00:18:28.908Z,99.90
2018-07-24T00:21:01.503Z,99.90
2018-07-24T00:23:33.575Z,99.90
2018-07-24T00:26:06.132Z,99.90
2018-07-24T00:28:42.955Z,99.90
2018-07-24T00:31:18.263Z,99.90
2018-07-24T00:33:57.481Z,99.90
2018-07-24T00:36:32.760Z,99.90
2018-07-24T00:39:06.545Z,99.90
2018-07-24T00:41:39.428Z,99.90
2018-07-24T00:44:11.084Z,99.90
2018-07-24T00:46:44.788Z,99.90
2018-07-24T00:49:16.097Z,99.90
2018-07-24T00:51:46.990Z,99.90
2018-07-24T00:54:17.782Z,99.90
2018-07-24T00:56:48.412Z,99.90
2018-07-24T00:59:20.065Z,99.90
2018-07-24T01:04:22.701Z,99.90
2018-07-24T01:06:52.372Z,99.90
2018-07-24T01:09:23.916Z,99.90
2018-07-24T01:14:25.645Z,99.90
2018-07-24T01:16:56.116Z,99.90
2018-07-24T01:21:59.835Z,99.90
2018-07-24T01:24:30.652Z,99.90
2018-07-24T01:27:01.864Z,99.90
2018-07-24T01:29:31.213Z,99.90
2018-07-24T01:32:02.824Z,99.90
2018-07-24T01:34:33.461Z,99.90
2018-07-24T01:37:05.106Z,99.90
2018-07-24T01:39:34.208Z,99.90
2018-07-24T01:42:04.990Z,99.90
2018-07-24T01:44:36.496Z,99.90
2018-07-24T01:47:06.536Z,99.90
2018-07-24T01:49:40.038Z,99.90
2018-07-24T01:52:10.284Z,99.90
2018-07-24T01:54:40.691Z,99.90
2018-07-24T01:57:14.994Z,99.90
2018-07-24T01:59:50.484Z,99.90
2018-07-24T02:02:21.612Z,99.90
2018-07-24T02:04:53.487Z,99.90
2018-07-24T02:07:27.043Z,99.90
2018-07-24T02:09:59.868Z,99.90
2018-07-24T02:12:37.389Z,99.90
2018-07-24T02:15:15.900Z,99.90
2018-07-24T02:23:20.157Z,99.90
2018-07-24T02:36:31.453Z,99.90
2018-07-24T02:39:13.509Z,99.90
2018-07-24T02:41:45.770Z,99.90
2018-07-24T02:47:00.820Z,99.90
2018-07-24T02:49:37.675Z,99.90
2018-07-24T02:52:14.753Z,99.90
2018-07-24T02:54:47.474Z,99.90
2018-07-24T02:59:55.517Z,99.90
2018-07-24T03:02:27.033Z,99.90
2018-07-24T03:04:57.526Z,99.90
2018-07-24T03:07:29.360Z,99.90
2018-07-24T03:09:59.089Z,99.90
2018-07-24T03:12:28.217Z,99.90
2018-07-24T03:14:57.429Z,99.90
2018-07-24T03:17:26.799Z,99.90
2018-07-24T03:19:55.920Z,99.90
2018-07-24T03:22:25.103Z,99.90
2018-07-24T03:24:54.303Z,99.90
2018-07-24T03:27:23.657Z,99.90
2018-07-24T03:29:53.507Z,99.90
2018-07-24T03:32:23.248Z,99.90
2018-07-24T03:34:52.384Z,99.90
2018-07-24T03:39:53.197Z,99.90
2018-07-24T03:42:23.012Z,99.90
2018-07-24T03:44:52.695Z,99.90
2018-07-24T03:47:22.724Z,99.90
2018-07-24T03:49:54.681Z,99.90
2018-07-24T03:52:25.162Z,99.90
2018-07-24T03:54:54.641Z,99.90
2018-07-24T03:57:24.684Z,99.90
2018-07-24T04:02:26.839Z,99.90
2018-07-24T04:04:55.948Z,99.90
2018-07-24T04:07:27.894Z,99.90
2018-07-24T04:09:58.538Z,99.90
2018-07-24T04:12:30.276Z,99.90
2018-07-24T04:15:00.278Z,99.90
2018-07-24T04:17:30.349Z,99.90
2018-07-24T04:22:29.776Z,99.90
2018-07-24T04:27:30.125Z,99.90
2018-07-24T04:32:40.544Z,99.90
2018-07-24T04:35:12.499Z,99.90
2018-07-24T04:37:45.660Z,99.90
2018-07-24T04:42:50.276Z,99.90
2018-07-24T04:45:21.932Z,99.90
2018-07-24T04:47:56.340Z,99.90
2018-07-24T04:50:26.693Z,99.90
2018-07-24T04:55:33.130Z,99.90
2018-07-24T04:58:03.906Z,99.90
2018-07-24T05:03:09.920Z,99.90
2018-07-24T05:05:40.412Z,99.90
2018-07-24T05:08:16.370Z,99.90
2018-07-24T05:10:49.630Z,99.90
2018-07-24T05:13:20.308Z,99.90
2018-07-24T05:18:20.806Z,99.90
2018-07-24T05:20:53.512Z,99.90
2018-07-24T05:23:26.657Z,99.90
2018-07-24T05:26:02.354Z,99.90
2018-07-24T05:28:37.752Z,99.90
2018-07-24T05:31:08.301Z,99.90
2018-07-24T05:33:39.252Z,99.90
2018-07-24T05:36:11.429Z,99.90
2018-07-24T05:38:42.524Z,99.90
2018-07-24T05:41:12.772Z,99.90
2018-07-24T05:43:43.264Z,99.90
2018-07-24T05:46:17.724Z,99.90
2018-07-24T05:48:51.278Z,99.90
2018-07-24T05:51:22.676Z,99.90
2018-07-24T05:53:53.809Z,99.90
2018-07-24T05:56:30.187Z,99.90
2018-07-24T05:59:00.394Z,99.90
2018-07-24T06:01:31.592Z,99.90
2018-07-24T06:04:02.605Z,99.90
2018-07-24T06:06:35.232Z,99.90
2018-07-24T06:09:09.932Z,99.90
2018-07-24T06:11:42.161Z,99.90
2018-07-24T06:14:12.633Z,99.90
2018-07-24T06:16:44.363Z,99.90
2018-07-24T06:19:15.408Z,99.90
2018-07-24T06:21:49.666Z,99.90
2018-07-24T06:24:27.514Z,99.90
2018-07-24T06:28:34.760Z,99.90
2018-07-24T06:31:05.045Z,99.90
2018-07-24T06:33:37.096Z,99.90
2018-07-24T06:36:08.367Z,99.90
2018-07-24T06:38:39.353Z,99.90
2018-07-24T06:41:11.671Z,99.90
2018-07-24T06:43:43.500Z,99.90
2018-07-24T06:46:23.684Z,99.90
2018-07-24T06:48:55.803Z,99.90
2018-07-24T06:51:28.481Z,99.90
2018-07-24T06:54:04.285Z,99.90
2018-07-24T06:56:35.831Z,99.90
2018-07-24T06:59:09.977Z,98.10
2018-07-24T07:01:39.411Z,96.80
2018-07-24T07:06:42.888Z,95.60
2018-07-24T07:09:13.949Z,95.90
2018-07-24T07:14:13.745Z,95.20
2018-07-24T07:16:42.952Z,95.50
2018-07-24T07:19:13.175Z,95.20
2018-07-24T07:21:43.161Z,95.00
2018-07-24T07:24:12.619Z,94.40
2018-07-24T07:34:13.888Z,90.00
2018-07-24T07:36:50.126Z,87.80
2018-07-24T07:45:03.293Z,83.00
2018-07-24T07:52:37.157Z,58.80
2018-07-24T07:55:08.244Z,56.80
2018-07-24T07:57:39.819Z,56.40
2018-07-24T08:00:16.516Z,50.10
2018-07-24T08:02:51.947Z,47.80
2018-07-24T08:05:28.820Z,46.80
2018-07-24T08:08:02.520Z,44.80
2018-07-24T08:10:37.554Z,43.30
2018-07-24T08:13:08.631Z,47.90
2018-07-24T08:15:40.260Z,54.40
2018-07-24T08:18:11.048Z,53.30
2018-07-24T08:20:45.928Z,54.00
2018-07-24T08:23:16.245Z,54.30
2018-07-24T08:25:46.089Z,53.90
2018-07-24T08:28:17.393Z,51.70
2018-07-24T08:30:48.456Z,54.70
2018-07-24T08:33:21.646Z,53.30
2018-07-24T08:35:53.136Z,51.60
2018-07-24T08:38:23.704Z,54.40
2018-07-24T08:40:54.866Z,57.90
2018-07-24T08:43:25.002Z,51.20
2018-07-24T08:45:57.989Z,45.20
2018-07-24T08:48:33.257Z,42.90
2018-07-24T08:51:06.215Z,46.70
2018-07-24T08:53:41.569Z,45.20
2018-07-24T08:56:10.544Z,47.60
2018-07-24T08:58:42.781Z,47.00
2018-07-24T09:03:43.592Z,43.00
2018-07-24T09:06:13.986Z,45.00
2018-07-24T09:08:45.234Z,48.00
2018-07-24T09:11:15.432Z,44.30
2018-07-24T09:13:45.733Z,41.70
2018-07-24T09:16:19.593Z,40.50
2018-07-24T09:18:49.968Z,40.70
2018-07-24T09:21:21.065Z,43.20
2018-07-24T09:23:56.235Z,42.70
2018-07-24T09:26:27.997Z,42.70
2018-07-24T09:29:00.118Z,39.60
2018-07-24T09:31:30.400Z,44.20
2018-07-24T09:36:39.355Z,40.40
2018-07-24T09:39:10.541Z,39.50
2018-07-24T09:41:41.060Z,41.50
2018-07-24T09:44:11.638Z,40.10
2018-07-24T09:46:44.642Z,39.90
2018-07-24T09:51:47.287Z,39.90
2018-07-24T09:54:17.804Z,37.10
2018-07-24T09:56:48.295Z,36.90
2018-07-24T09:59:19.396Z,36.70
2018-07-24T10:01:54.015Z,34.70
2018-07-24T10:04:26.480Z,39.70
2018-07-24T10:06:57.422Z,41.40
2018-07-24T10:09:30.917Z,39.40
2018-07-24T10:12:02.268Z,41.10
2018-07-24T10:14:37.840Z,43.70
2018-07-24T10:17:10.041Z,42.60
2018-07-24T10:24:47.845Z,36.10
2018-07-24T10:27:20.497Z,35.30
2018-07-24T10:29:50.356Z,38.50
2018-07-24T10:32:20.766Z,41.10
2018-07-24T10:34:50.321Z,37.80
2018-07-24T10:37:21.350Z,39.60
2018-07-24T10:39:52.139Z,40.30
2018-07-24T10:42:21.701Z,37.80
2018-07-24T10:44:53.891Z,38.60
2018-07-24T10:47:25.471Z,39.40
2018-07-24T10:49:58.165Z,40.40
2018-07-24T10:52:30.197Z,42.60
2018-07-24T10:55:01.252Z,39.40
2018-07-24T10:57:36.545Z,41.90
2018-07-24T11:02:39.579Z,39.60
2018-07-24T11:05:10.175Z,36.00
2018-07-24T11:07:39.685Z,35.50
2018-07-24T11:10:10.480Z,34.50
2018-07-24T11:12:44.376Z,34.70
2018-07-24T11:15:28.643Z,36.60
2018-07-24T11:18:01.693Z,38.20
2018-07-24T11:20:40.266Z,40.80
2018-07-24T11:23:18.875Z,39.40
2018-07-24T11:26:04.140Z,40.80
2018-07-24T11:28:56.233Z,39.00
2018-07-24T11:31:34.225Z,38.20
2018-07-24T11:34:22.004Z,39.20
2018-07-24T11:37:00.244Z,36.40
2018-07-24T11:39:35.193Z,36.70
2018-07-24T11:44:56.519Z,32.90
2018-07-24T11:47:32.419Z,31.90
2018-07-24T11:50:07.065Z,31.70
2018-07-24T11:52:38.048Z,31.60
2018-07-24T11:55:13.894Z,31.90
2018-07-24T11:57:46.533Z,31.60
2018-07-24T12:13:20.729Z,31.70
2018-07-24T12:15:50.216Z,30.40
2018-07-24T12:18:22.433Z,32.00
2018-07-24T12:20:51.764Z,31.10
2018-07-24T12:23:20.924Z,33.80
2018-07-24T12:25:50.420Z,32.50
2018-07-24T12:28:20.669Z,30.70
2018-07-24T12:30:52.543Z,29.80
2018-07-24T12:33:21.700Z,32.00
2018-07-24T12:35:51.267Z,32.70
2018-07-24T12:38:23.565Z,33.80
2018-07-24T12:40:52.822Z,35.10
2018-07-24T12:43:22.674Z,35.00
2018-07-24T12:45:52.316Z,32.10
2018-07-24T12:48:21.438Z,31.70
2018-07-24T12:50:50.679Z,32.00
2018-07-24T12:53:19.879Z,34.50
2018-07-24T12:55:49.239Z,34.20
2018-07-24T12:58:19.101Z,36.30
2018-07-24T13:00:49.528Z,34.10
2018-07-24T13:03:19.096Z,31.40
2018-07-24T13:10:49.680Z,33.60
2018-07-24T13:13:23.145Z,32.80
2018-07-24T13:15:54.141Z,32.80
2018-07-24T13:18:25.479Z,33.40
2018-07-24T13:20:56.930Z,33.60
2018-07-24T13:23:31.869Z,34.70
2018-07-24T13:26:02.969Z,33.50
2018-07-24T13:31:03.456Z,32.10
2018-07-24T13:33:34.864Z,31.60
2018-07-24T13:38:39.747Z,34.20
2018-07-24T13:41:09.871Z,33.50
2018-07-24T13:43:41.353Z,34.80
2018-07-24T13:46:11.577Z,32.30
2018-07-24T13:48:44.153Z,31.10
2018-07-24T13:51:15.430Z,30.10
2018-07-24T13:53:49.925Z,30.60
2018-07-24T13:56:22.626Z,31.50
2018-07-24T13:58:56.872Z,31.30
2018-07-24T14:01:28.208Z,31.70
2018-07-24T14:04:02.675Z,30.60
2018-07-24T14:06:36.276Z,30.90
2018-07-24T14:09:13.736Z,31.00
2018-07-24T14:11:45.923Z,29.80
2018-07-24T14:14:17.541Z,30.50
2018-07-24T14:19:20.807Z,32.30
2018-07-24T14:21:51.740Z,33.80
2018-07-24T14:24:22.285Z,33.10
2018-07-24T14:26:57.749Z,32.70
2018-07-24T14:29:28.072Z,32.00
2018-07-24T14:31:59.773Z,31.50
2018-07-24T14:34:30.380Z,31.40
2018-07-24T14:39:32.868Z,34.90
2018-07-24T14:42:03.732Z,34.50
2018-07-24T14:44:33.901Z,36.40
2018-07-24T14:47:07.063Z,35.40
2018-07-24T14:49:39.973Z,33.30
2018-07-24T14:52:11.853Z,31.20
2018-07-24T14:54:44.296Z,32.70
2018-07-24T14:57:15.378Z,31.80
2018-07-24T14:59:50.081Z,33.50
2018-07-24T15:02:21.985Z,36.00
2018-07-24T15:04:56.181Z,34.90
2018-07-24T15:07:27.087Z,34.50
2018-07-24T15:09:56.826Z,31.70
2018-07-24T15:12:27.846Z,31.70
2018-07-24T15:14:58.754Z,30.70
2018-07-24T15:17:33.829Z,33.00
2018-07-24T15:20:05.135Z,33.30
2018-07-24T15:22:35.585Z,32.50
2018-07-24T15:25:08.277Z,33.50
2018-07-24T15:27:40.461Z,33.30
2018-07-24T15:30:10.454Z,34.10
2018-07-24T15:32:40.600Z,34.00
2018-07-24T15:35:13.539Z,35.60
2018-07-24T15:37:46.047Z,36.50
2018-07-24T15:40:16.952Z,36.30
2018-07-24T15:42:49.688Z,37.00
2018-07-24T15:45:20.832Z,38.30
2018-07-24T15:47:51.923Z,38.80
2018-07-24T15:50:21.945Z,36.70
2018-07-24T15:52:54.378Z,37.80
2018-07-24T15:55:26.524Z,37.70
2018-07-24T15:57:58.679Z,36.40
2018-07-24T16:00:34.042Z,36.40
2018-07-24T16:03:07.933Z,37.20
2018-07-24T16:05:41.912Z,37.40
2018-07-24T16:08:13.188Z,35.30
2018-07-24T16:10:49.367Z,36.40
2018-07-24T16:13:23.021Z,37.60
2018-07-24T16:15:54.304Z,36.40
2018-07-24T16:18:25.929Z,42.20
2018-07-24T16:21:01.497Z,38.20
2018-07-24T16:23:32.022Z,35.10
2018-07-24T16:26:04.592Z,34.50
2018-07-24T16:28:34.902Z,34.70
2018-07-24T16:31:04.133Z,36.40
2018-07-24T16:33:38.657Z,38.50
2018-07-24T16:36:08.640Z,35.60
2018-07-24T16:38:40.710Z,37.70
2018-07-24T16:41:11.972Z,37.00
2018-07-24T16:43:44.121Z,37.80
2018-07-24T16:46:14.349Z,40.10
2018-07-24T16:48:44.689Z,40.50
2018-07-24T16:51:17.641Z,40.60
2018-07-24T16:53:50.653Z,38.00
2018-07-24T16:56:22.915Z,40.60
2018-07-24T16:58:55.249Z,37.10
2018-07-24T17:06:25.240Z,42.20
2018-07-24T17:08:59.157Z,37.60
2018-07-24T17:11:36.227Z,41.40
2018-07-24T17:14:05.700Z,41.40
2018-07-24T17:19:07.517Z,41.60
2018-07-24T17:21:39.706Z,41.70
2018-07-24T17:24:10.001Z,41.10
2018-07-24T17:26:46.828Z,41.50
2018-07-24T17:29:18.848Z,41.80
2018-07-24T17:31:51.183Z,44.70
2018-07-24T17:34:20.318Z,41.90
2018-07-24T17:36:50.856Z,43.80
2018-07-24T17:39:27.120Z,43.90
2018-07-24T17:41:58.076Z,45.00
2018-07-24T17:44:30.937Z,45.80
2018-07-24T17:47:02.072Z,47.20
2018-07-24T17:49:34.606Z,47.90
2018-07-24T17:52:06.108Z,49.00
2018-07-24T17:54:36.284Z,49.50
2018-07-24T17:59:52.476Z,51.80
2018-07-24T18:02:24.412Z,53.10
2018-07-24T18:04:55.479Z,54.50
2018-07-24T18:07:28.136Z,56.10
2018-07-24T18:09:59.702Z,57.90
2018-07-24T18:12:31.337Z,59.20
2018-07-24T18:15:05.909Z,63.00
2018-07-24T18:17:36.329Z,64.30
2018-07-24T18:20:07.982Z,68.50
2018-07-24T18:22:43.753Z,71.70
2018-07-24T18:25:18.908Z,73.40
2018-07-24T18:27:50.792Z,75.30
2018-07-24T18:30:20.965Z,77.20
2018-07-24T18:32:52.051Z,77.90
2018-07-24T18:35:25.600Z,79.70
2018-07-24T18:37:55.574Z,80.60
2018-07-24T18:40:27.337Z,81.50
2018-07-24T18:42:58.233Z,82.30
2018-07-24T18:45:31.132Z,83.40
2018-07-24T18:48:03.939Z,83.40
2018-07-24T18:50:38.486Z,83.90
2018-07-24T18:53:07.816Z,83.20
2018-07-24T18:55:38.130Z,84.40
2018-07-24T19:00:44.381Z,88.40
2018-07-24T19:03:15.758Z,89.10
2018-07-24T19:05:45.844Z,89.20
2018-07-24T19:08:17.283Z,90.10
2018-07-24T19:10:47.308Z,91.20
2018-07-24T19:13:19.964Z,91.40
2018-07-24T19:27:43.637Z,90.50
2018-07-24T19:30:15.389Z,91.60
2018-07-24T19:32:45.516Z,90.70
2018-07-24T19:35:15.633Z,91.20
2018-07-24T19:37:45.679Z,89.70
2018-07-24T19:40:14.976Z,89.50
2018-07-24T19:42:44.699Z,90.50
2018-07-24T19:45:15.150Z,87.50
2018-07-24T19:47:45.824Z,86.70
2018-07-24T19:50:16.255Z,89.70
2018-07-24T19:52:46.425Z,90.00
2018-07-24T19:57:49.353Z,89.80
2018-07-24T20:00:20.300Z,90.10
2018-07-24T20:02:51.972Z,90.50
2018-07-24T20:05:23.537Z,90.80
2018-07-24T20:07:57.166Z,90.30
2018-07-24T20:10:29.764Z,90.20
2018-07-24T20:12:58.876Z,90.20
2018-07-24T20:15:29.637Z,91.20
2018-07-24T20:18:00.058Z,93.50
2018-07-24T20:20:31.444Z,94.60
2018-07-24T20:23:07.184Z,94.50
2018-07-24T20:25:41.635Z,94.50
2018-07-24T20:28:26.293Z,94.20
2018-07-24T20:31:12.902Z,93.20
2018-07-24T20:33:56.573Z,93.40
2018-07-24T20:36:32.350Z,93.20
2018-07-24T20:39:11.828Z,93.90
2018-07-24T20:41:55.369Z,94.00
2018-07-24T20:47:19.270Z,95.10
2018-07-24T20:50:02.899Z,95.10
2018-07-24T20:52:34.440Z,95.50
2018-07-24T20:57:42.285Z,95.40
2018-07-24T21:02:52.438Z,94.70
2018-07-24T21:05:22.525Z,94.80
2018-07-24T21:07:54.954Z,94.90
2018-07-24T21:10:25.889Z,95.20
2018-07-24T21:15:29.134Z,95.90
2018-07-24T21:18:01.818Z,96.30
2018-07-24T21:20:34.920Z,96.30
2018-07-24T21:23:05.749Z,96.70
2018-07-24T21:25:35.905Z,96.40
2018-07-24T21:35:36.350Z,97.50
2018-07-24T21:38:06.557Z,97.70
2018-07-24T21:40:35.922Z,97.90
2018-07-24T21:43:05.024Z,97.90
2018-07-24T21:45:35.434Z,98.30
2018-07-24T21:48:04.541Z,98.50
2018-07-24T21:53:03.489Z,98.70
2018-07-24T21:55:34.701Z,98.80
2018-07-24T22:00:36.280Z,98.40
2018-07-24T22:03:08.691Z,98.60
2018-07-24T22:05:40.164Z,98.80
2018-07-24T22:08:10.181Z,98.70
2018-07-24T22:10:41.101Z,98.50
2018-07-24T22:13:11.561Z,98.70
2018-07-24T22:15:42.908Z,99.20
2018-07-24T22:18:13.258Z,99.60
2018-07-24T22:20:43.317Z,99.90
2018-07-24T22:23:17.988Z,99.90
2018-07-24T22:25:48.100Z,99.90
2018-07-24T22:28:17.620Z,99.90
2018-07-24T22:33:21.179Z,99.90
2018-07-24T22:35:52.278Z,99.90
2018-07-24T22:40:54.768Z,99.90
2018-07-24T22:43:25.192Z,99.90
2018-07-24T22:50:57.409Z,99.90
2018-07-24T22:56:00.700Z,99.90
2018-07-24T22:58:33.031Z,99.90
2018-07-24T23:01:03.604Z,99.90
2018-07-24T23:03:34.456Z,99.90
2018-07-24T23:06:10.821Z,99.90
2018-07-24T23:11:11.518Z,99.90
2018-07-24T23:13:41.593Z,99.90
2018-07-24T23:18:43.873Z,99.90
2018-07-24T23:21:18.649Z,99.90
2018-07-24T23:23:49.855Z,99.90
2018-07-24T23:28:51.521Z,99.90
2018-07-24T23:31:23.786Z,99.90
2018-07-24T23:33:54.112Z,99.90
2018-07-24T23:36:25.157Z,99.90
2018-07-24T23:38:55.001Z,99.90
2018-07-24T23:41:26.453Z,99.90
2018-07-24T23:44:00.641Z,99.90
2018-07-24T23:49:06.204Z,99.90
2018-07-24T23:51:40.341Z,99.90
2018-07-24T23:54:12.170Z,99.90
2018-07-24T23:56:42.860Z,99.90
2018-07-24T23:59:13.949Z,99.90
